Terminal Aerodrome Forecast
Issued by NWS Medford, OR

Home | Current Version | Previous Version | Text Only | Print | Product List | Glossary On
Versions: 1 2 3 4 5 6 7 8 9 10 11 12 13 14 15 16 17 18 19 20
000
FTUS46 KMFR 192351 CCA
TAFMFR
TAF COR
KMFR 192351Z 2000/2024 VRB03KT P6SM VCSH SCT025 BKN040 OVC060
     FM200900 15005KT 3SM -RA BR SCT007 BKN015 OVC025 WS020/20035KT=

USA.gov is the U.S. government's official web portal to all federal, state and local government web resources and services.